Terminal Aerodrome Forecast
Issued by NWS

Home | Current Version | Previous Version | Text Only | Print | Product List | Glossary On
Versions: 1 2 3 4 5 6 7 8 9 10 11 12 13 14 15 16 17 18 19 20 21 22 23 24 25 26 27 28 29 30
000
FTUS43 KDLH 252031 AAB
TAFBRD
TAF AMD
KBRD 252031Z 2521/2618 09010KT P6SM VCSH OVC040
      TEMPO 2521/2522 5SM -TSRA OVC020CB
     FM252200 12010KT P6SM VCSH OVC080
      TEMPO 2522/2602 3SM -TSRA BR OVC011CB
     FM260600 12010KT 5SM BR OVC020
     FM261200 20012KT P6SM VCSH BKN040=

USA.gov is the U.S. government's official web portal to all federal, state and local government web resources and services.